sensor_id;sensor_type;location;lat;lon;timestamp;temperature;humidity
26270;DHT22;15937;50.612;6.656;2022-11-02T00:01:39;12.30;99.90
26270;DHT22;15937;50.612;6.656;2022-11-02T00:05:41;12.20;99.90
26270;DHT22;15937;50.612;6.656;2022-11-02T00:09:43;12.30;99.90
26270;DHT22;15937;50.612;6.656;2022-11-02T00:13:45;12.20;99.90
26270;DHT22;15937;50.612;6.656;2022-11-02T00:17:47;12.30;99.90
26270;DHT22;15937;50.612;6.656;2022-11-02T00:21:50;12.30;99.90
26270;DHT22;15937;50.612;6.656;2022-11-02T00:25:51;12.30;99.90
26270;DHT22;15937;50.612;6.656;2022-11-02T00:29:54;12.40;99.90
26270;DHT22;15937;50.612;6.656;2022-11-02T00:33:56;12.40;99.90
26270;DHT22;15937;50.612;6.656;2022-11-02T00:37:57;12.40;99.90
26270;DHT22;15937;50.612;6.656;2022-11-02T00:41:59;12.40;99.90
26270;DHT22;15937;50.612;6.656;2022-11-02T00:46:01;12.50;99.90
26270;DHT22;15937;50.612;6.656;2022-11-02T00:50:02;12.50;99.90
26270;DHT22;15937;50.612;6.656;2022-11-02T00:54:04;12.50;99.90
26270;DHT22;15937;50.612;6.656;2022-11-02T00:58:06;12.40;99.90
26270;DHT22;15937;50.612;6.656;2022-11-02T01:02:08;12.30;99.90
26270;DHT22;15937;50.612;6.656;2022-11-02T01:06:11;12.30;99.90
26270;DHT22;15937;50.612;6.656;2022-11-02T01:10:13;12.20;99.90
26270;DHT22;15937;50.612;6.656;2022-11-02T01:14:14;12.30;99.90
26270;DHT22;15937;50.612;6.656;2022-11-02T01:18:16;12.30;99.90
26270;DHT22;15937;50.612;6.656;2022-11-02T01:22:18;12.20;99.90
26270;DHT22;15937;50.612;6.656;2022-11-02T01:26:20;12.20;99.90
26270;DHT22;15937;50.612;6.656;2022-11-02T01:30:21;12.20;99.90
26270;DHT22;15937;50.612;6.656;2022-11-02T01:34:23;12.10;99.90
26270;DHT22;15937;50.612;6.656;2022-11-02T01:38:24;12.10;99.90
26270;DHT22;15937;50.612;6.656;2022-11-02T01:42:26;12.10;99.90
26270;DHT22;15937;50.612;6.656;2022-11-02T01:46:41;12.10;99.90
26270;DHT22;15937;50.612;6.656;2022-11-02T01:50:43;12.00;99.90
26270;DHT22;15937;50.612;6.656;2022-11-02T01:54:50;12.00;99.90
26270;DHT22;15937;50.612;6.656;2022-11-02T01:58:53;12.10;99.90
26270;DHT22;15937;50.612;6.656;2022-11-02T02:03:03;12.10;99.90
26270;DHT22;15937;50.612;6.656;2022-11-02T02:07:05;12.10;99.90
26270;DHT22;15937;50.612;6.656;2022-11-02T02:11:27;12.10;99.90
26270;DHT22;15937;50.612;6.656;2022-11-02T02:15:33;12.10;99.90
26270;DHT22;15937;50.612;6.656;2022-11-02T02:19:55;12.10;99.90
26270;DHT22;15937;50.612;6.656;2022-11-02T02:32:34;12.20;99.90
26270;DHT22;15937;50.612;6.656;2022-11-02T02:36:44;12.10;99.90
26270;DHT22;15937;50.612;6.656;2022-11-02T02:40:51;12.10;99.90
26270;DHT22;15937;50.612;6.656;2022-11-02T02:45:00;12.20;99.90
26270;DHT22;15937;50.612;6.656;2022-11-02T02:49:05;12.20;99.90
26270;DHT22;15937;50.612;6.656;2022-11-02T02:53:08;12.20;99.90
26270;DHT22;15937;50.612;6.656;2022-11-02T02:57:11;12.10;99.90
26270;DHT22;15937;50.612;6.656;2022-11-02T03:01:13;12.10;99.90
26270;DHT22;15937;50.612;6.656;2022-11-02T03:05:32;12.10;99.90
26270;DHT22;15937;50.612;6.656;2022-11-02T03:09:35;12.10;99.90
26270;DHT22;15937;50.612;6.656;2022-11-02T03:22:15;12.00;99.90
26270;DHT22;15937;50.612;6.656;2022-11-02T03:26:22;12.00;99.90
26270;DHT22;15937;50.612;6.656;2022-11-02T03:30:27;12.00;99.90
26270;DHT22;15937;50.612;6.656;2022-11-02T03:34:34;12.00;99.90
26270;DHT22;15937;50.612;6.656;2022-11-02T03:42:46;12.00;99.90
26270;DHT22;15937;50.612;6.656;2022-11-02T03:46:49;12.00;99.90
26270;DHT22;15937;50.612;6.656;2022-11-02T03:50:51;11.90;99.90
26270;DHT22;15937;50.612;6.656;2022-11-02T03:54:59;11.90;99.90
26270;DHT22;15937;50.612;6.656;2022-11-02T03:59:03;11.90;99.90
26270;DHT22;15937;50.612;6.656;2022-11-02T04:03:04;11.90;99.90
26270;DHT22;15937;50.612;6.656;2022-11-02T04:07:09;11.80;99.90
26270;DHT22;15937;50.612;6.656;2022-11-02T04:11:11;11.80;99.90
26270;DHT22;15937;50.612;6.656;2022-11-02T04:15:31;11.80;99.90
26270;DHT22;15937;50.612;6.656;2022-11-02T04:19:32;11.70;99.90
26270;DHT22;15937;50.612;6.656;2022-11-02T04:23:34;11.70;99.90
26270;DHT22;15937;50.612;6.656;2022-11-02T04:27:54;11.60;99.90
26270;DHT22;15937;50.612;6.656;2022-11-02T04:31:56;11.70;99.90
26270;DHT22;15937;50.612;6.656;2022-11-02T04:36:05;11.70;99.90
26270;DHT22;15937;50.612;6.656;2022-11-02T04:40:07;11.60;99.90
26270;DHT22;15937;50.612;6.656;2022-11-02T04:44:10;11.60;99.90
26270;DHT22;15937;50.612;6.656;2022-11-02T04:48:12;11.60;99.90
26270;DHT22;15937;50.612;6.656;2022-11-02T04:52:13;11.50;99.90
26270;DHT22;15937;50.612;6.656;2022-11-02T04:56:15;11.60;99.90
26270;DHT22;15937;50.612;6.656;2022-11-02T05:00:17;11.60;99.90
26270;DHT22;15937;50.612;6.656;2022-11-02T05:04:19;11.50;99.90
26270;DHT22;15937;50.612;6.656;2022-11-02T05:08:20;11.50;99.90
26270;DHT22;15937;50.612;6.656;2022-11-02T05:12:22;11.50;99.90
26270;DHT22;15937;50.612;6.656;2022-11-02T05:16:29;11.50;99.90
26270;DHT22;15937;50.612;6.656;2022-11-02T05:20:31;11.50;99.90
26270;DHT22;15937;50.612;6.656;2022-11-02T05:24:32;11.40;99.90
26270;DHT22;15937;50.612;6.656;2022-11-02T05:28:34;11.50;99.90
26270;DHT22;15937;50.612;6.656;2022-11-02T05:32:36;11.40;99.90
26270;DHT22;15937;50.612;6.656;2022-11-02T05:36:37;11.50;99.90
26270;DHT22;15937;50.612;6.656;2022-11-02T05:40:39;11.50;99.90
26270;DHT22;15937;50.612;6.656;2022-11-02T05:44:41;11.40;99.90
26270;DHT22;15937;50.612;6.656;2022-11-02T05:48:42;11.50;99.90
26270;DHT22;15937;50.612;6.656;2022-11-02T05:52:44;11.50;99.90
26270;DHT22;15937;50.612;6.656;2022-11-02T05:56:46;11.40;99.90
26270;DHT22;15937;50.612;6.656;2022-11-02T06:00:47;11.40;99.90
26270;DHT22;15937;50.612;6.656;2022-11-02T06:04:49;11.50;99.90
26270;DHT22;15937;50.612;6.656;2022-11-02T06:08:50;11.40;99.90
26270;DHT22;15937;50.612;6.656;2022-11-02T06:12:59;11.40;99.90
26270;DHT22;15937;50.612;6.656;2022-11-02T06:17:00;11.40;99.90
26270;DHT22;15937;50.612;6.656;2022-11-02T06:21:02;11.30;99.90
26270;DHT22;15937;50.612;6.656;2022-11-02T06:25:04;11.30;99.90
26270;DHT22;15937;50.612;6.656;2022-11-02T06:29:06;11.30;99.90
26270;DHT22;15937;50.612;6.656;2022-11-02T06:33:08;11.30;99.90
26270;DHT22;15937;50.612;6.656;2022-11-02T06:37:10;11.40;99.90
26270;DHT22;15937;50.612;6.656;2022-11-02T06:41:14;11.40;99.90
26270;DHT22;15937;50.612;6.656;2022-11-02T06:46:00;11.40;99.90
26270;DHT22;15937;50.612;6.656;2022-11-02T06:50:02;11.40;99.90
26270;DHT22;15937;50.612;6.656;2022-11-02T06:54:07;11.40;99.90
26270;DHT22;15937;50.612;6.656;2022-11-02T06:58:11;11.50;99.90
26270;DHT22;15937;50.612;6.656;2022-11-02T07:02:12;11.40;99.90
26270;DHT22;15937;50.612;6.656;2022-11-02T07:06:17;11.50;99.90
26270;DHT22;15937;50.612;6.656;2022-11-02T07:10:19;11.50;99.90
26270;DHT22;15937;50.612;6.656;2022-11-02T07:14:20;11.40;99.90
26270;DHT22;15937;50.612;6.656;2022-11-02T07:18:22;11.50;99.90
26270;DHT22;15937;50.612;6.656;2022-11-02T07:22:24;11.50;99.90
26270;DHT22;15937;50.612;6.656;2022-11-02T07:26:28;11.60;99.90
26270;DHT22;15937;50.612;6.656;2022-11-02T07:30:31;11.60;99.90
26270;DHT22;15937;50.612;6.656;2022-11-02T07:34:33;11.60;99.90
26270;DHT22;15937;50.612;6.656;2022-11-02T07:38:35;11.60;99.90
26270;DHT22;15937;50.612;6.656;2022-11-02T07:42:43;11.50;99.90
26270;DHT22;15937;50.612;6.656;2022-11-02T07:46:46;11.60;99.90
26270;DHT22;15937;50.612;6.656;2022-11-02T07:50:52;11.60;99.90
26270;DHT22;15937;50.612;6.656;2022-11-02T07:54:53;11.60;99.90
26270;DHT22;15937;50.612;6.656;2022-11-02T07:58:55;11.70;99.90
26270;DHT22;15937;50.612;6.656;2022-11-02T08:02:57;11.80;99.90
26270;DHT22;15937;50.612;6.656;2022-11-02T08:06:59;11.80;99.90
26270;DHT22;15937;50.612;6.656;2022-11-02T08:11:03;11.80;99.90
26270;DHT22;15937;50.612;6.656;2022-11-02T08:15:05;11.80;99.90
26270;DHT22;15937;50.612;6.656;2022-11-02T08:19:08;11.90;99.90
26270;DHT22;15937;50.612;6.656;2022-11-02T08:23:10;12.00;99.90
26270;DHT22;15937;50.612;6.656;2022-11-02T08:27:11;12.00;99.90
26270;DHT22;15937;50.612;6.656;2022-11-02T08:31:14;12.00;99.90
26270;DHT22;15937;50.612;6.656;2022-11-02T08:35:18;12.00;99.90
26270;DHT22;15937;50.612;6.656;2022-11-02T08:39:19;12.00;99.90
26270;DHT22;15937;50.612;6.656;2022-11-02T08:43:21;12.20;99.90
26270;DHT22;15937;50.612;6.656;2022-11-02T08:47:28;12.40;99.90
26270;DHT22;15937;50.612;6.656;2022-11-02T08:51:29;12.20;99.90
26270;DHT22;15937;50.612;6.656;2022-11-02T08:55:31;12.20;99.90
26270;DHT22;15937;50.612;6.656;2022-11-02T08:59:33;12.30;99.90
26270;DHT22;15937;50.612;6.656;2022-11-02T09:03:35;12.30;99.90
26270;DHT22;15937;50.612;6.656;2022-11-02T09:07:37;12.20;99.90
26270;DHT22;15937;50.612;6.656;2022-11-02T09:11:38;12.40;99.90
26270;DHT22;15937;50.612;6.656;2022-11-02T09:15:40;12.60;99.90
26270;DHT22;15937;50.612;6.656;2022-11-02T09:19:42;12.70;99.90
26270;DHT22;15937;50.612;6.656;2022-11-02T09:23:44;12.70;99.90
26270;DHT22;15937;50.612;6.656;2022-11-02T09:27:52;12.70;99.90
26270;DHT22;15937;50.612;6.656;2022-11-02T09:31:56;12.70;99.90
26270;DHT22;15937;50.612;6.656;2022-11-02T09:36:00;12.80;99.90
26270;DHT22;15937;50.612;6.656;2022-11-02T09:40:05;12.90;99.90
26270;DHT22;15937;50.612;6.656;2022-11-02T09:48:16;12.90;99.90
26270;DHT22;15937;50.612;6.656;2022-11-02T09:52:29;13.00;99.90
26270;DHT22;15937;50.612;6.656;2022-11-02T09:56:32;13.00;99.90
26270;DHT22;15937;50.612;6.656;2022-11-02T10:00:35;12.90;99.90
26270;DHT22;15937;50.612;6.656;2022-11-02T10:04:43;13.10;99.90
26270;DHT22;15937;50.612;6.656;2022-11-02T10:08:58;13.10;99.90
26270;DHT22;15937;50.612;6.656;2022-11-02T10:17:16;13.30;99.90
26270;DHT22;15937;50.612;6.656;2022-11-02T10:21:19;13.50;99.90
26270;DHT22;15937;50.612;6.656;2022-11-02T10:25:22;13.40;99.90
26270;DHT22;15937;50.612;6.656;2022-11-02T10:29:32;13.40;99.90
26270;DHT22;15937;50.612;6.656;2022-11-02T10:33:35;13.40;99.90
26270;DHT22;15937;50.612;6.656;2022-11-02T10:37:50;13.40;99.90
26270;DHT22;15937;50.612;6.656;2022-11-02T10:46:07;13.40;99.90
26270;DHT22;15937;50.612;6.656;2022-11-02T10:54:34;13.40;99.90
26270;DHT22;15937;50.612;6.656;2022-11-02T10:58:37;13.30;99.90
26270;DHT22;15937;50.612;6.656;2022-11-02T11:02:40;13.60;99.90
26270;DHT22;15937;50.612;6.656;2022-11-02T11:06:42;13.80;99.90
26270;DHT22;15937;50.612;6.656;2022-11-02T11:10:44;13.90;99.90
26270;DHT22;15937;50.612;6.656;2022-11-02T11:14:51;14.10;99.90
26270;DHT22;15937;50.612;6.656;2022-11-02T11:19:18;14.00;99.90
26270;DHT22;15937;50.612;6.656;2022-11-02T11:23:37;14.10;99.90
26270;DHT22;15937;50.612;6.656;2022-11-02T11:27:48;14.40;99.90
26270;DHT22;15937;50.612;6.656;2022-11-02T11:31:51;14.60;99.90
26270;DHT22;15937;50.612;6.656;2022-11-02T11:35:52;14.60;99.90
26270;DHT22;15937;50.612;6.656;2022-11-02T11:39:58;14.80;99.90
26270;DHT22;15937;50.612;6.656;2022-11-02T11:44:01;14.60;99.90
26270;DHT22;15937;50.612;6.656;2022-11-02T11:52:05;14.60;99.90
26270;DHT22;15937;50.612;6.656;2022-11-02T11:56:09;14.30;99.90
26270;DHT22;15937;50.612;6.656;2022-11-02T12:00:27;14.40;99.90
26270;DHT22;15937;50.612;6.656;2022-11-02T12:04:35;14.60;99.90
26270;DHT22;15937;50.612;6.656;2022-11-02T12:08:47;14.70;99.90
26270;DHT22;15937;50.612;6.656;2022-11-02T12:21:29;15.10;99.90
26270;DHT22;15937;50.612;6.656;2022-11-02T12:25:37;15.00;99.90
26270;DHT22;15937;50.612;6.656;2022-11-02T12:42:10;15.10;99.90
26270;DHT22;15937;50.612;6.656;2022-11-02T12:46:26;15.00;99.90
26270;DHT22;15937;50.612;6.656;2022-11-02T12:54:44;15.10;99.90
26270;DHT22;15937;50.612;6.656;2022-11-02T12:58:47;15.00;99.90
26270;DHT22;15937;50.612;6.656;2022-11-02T13:02:55;14.80;99.90
26270;DHT22;15937;50.612;6.656;2022-11-02T13:07:03;14.60;99.90
26270;DHT22;15937;50.612;6.656;2022-11-02T13:11:14;14.80;99.90
26270;DHT22;15937;50.612;6.656;2022-11-02T13:15:17;14.60;99.90
26270;DHT22;15937;50.612;6.656;2022-11-02T13:19:22;14.90;99.90
26270;DHT22;15937;50.612;6.656;2022-11-02T13:27:33;15.10;99.90
26270;DHT22;15937;50.612;6.656;2022-11-02T13:35:52;15.10;99.80
26270;DHT22;15937;50.612;6.656;2022-11-02T13:39:55;15.10;99.90
26270;DHT22;15937;50.612;6.656;2022-11-02T13:52:43;15.00;99.10
26270;DHT22;15937;50.612;6.656;2022-11-02T13:56:46;14.90;99.00
26270;DHT22;15937;50.612;6.656;2022-11-02T14:00:57;14.90;99.10
26270;DHT22;15937;50.612;6.656;2022-11-02T14:04:59;14.90;99.40
26270;DHT22;15937;50.612;6.656;2022-11-02T14:09:02;14.80;99.00
26270;DHT22;15937;50.612;6.656;2022-11-02T14:13:10;14.60;99.50
26270;DHT22;15937;50.612;6.656;2022-11-02T14:17:15;14.50;99.50
26270;DHT22;15937;50.612;6.656;2022-11-02T14:25:52;14.40;98.70
26270;DHT22;15937;50.612;6.656;2022-11-02T14:29:54;14.50;99.20
26270;DHT22;15937;50.612;6.656;2022-11-02T14:50:16;14.20;99.80
26270;DHT22;15937;50.612;6.656;2022-11-02T14:54:19;14.00;99.90
26270;DHT22;15937;50.612;6.656;2022-11-02T14:58:21;14.10;99.90
26270;DHT22;15937;50.612;6.656;2022-11-02T15:06:29;14.00;99.90
26270;DHT22;15937;50.612;6.656;2022-11-02T15:10:37;13.90;99.90
26270;DHT22;15937;50.612;6.656;2022-11-02T15:18:42;13.90;99.50
26270;DHT22;15937;50.612;6.656;2022-11-02T15:22:46;13.80;99.80
26270;DHT22;15937;50.612;6.656;2022-11-02T15:26:50;13.80;99.90
26270;DHT22;15937;50.612;6.656;2022-11-02T15:31:00;13.80;99.90
26270;DHT22;15937;50.612;6.656;2022-11-02T15:35:04;13.50;99.90
26270;DHT22;15937;50.612;6.656;2022-11-02T15:39:06;13.50;99.90
26270;DHT22;15937;50.612;6.656;2022-11-02T16:03:58;12.90;99.90
26270;DHT22;15937;50.612;6.656;2022-11-02T16:08:04;12.90;99.90
26270;DHT22;15937;50.612;6.656;2022-11-02T16:12:15;12.70;99.90
26270;DHT22;15937;50.612;6.656;2022-11-02T16:16:17;12.70;99.90
26270;DHT22;15937;50.612;6.656;2022-11-02T16:20:21;12.70;99.90
26270;DHT22;15937;50.612;6.656;2022-11-02T16:24:23;12.60;99.90
26270;DHT22;15937;50.612;6.656;2022-11-02T16:28:29;12.50;99.90
26270;DHT22;15937;50.612;6.656;2022-11-02T16:32:31;12.50;99.90
26270;DHT22;15937;50.612;6.656;2022-11-02T16:36:34;12.40;99.90
26270;DHT22;15937;50.612;6.656;2022-11-02T16:40:36;12.40;99.90
26270;DHT22;15937;50.612;6.656;2022-11-02T16:44:37;12.40;99.90
26270;DHT22;15937;50.612;6.656;2022-11-02T16:48:39;12.30;99.90
26270;DHT22;15937;50.612;6.656;2022-11-02T16:53:02;12.20;99.90
26270;DHT22;15937;50.612;6.656;2022-11-02T17:01:17;12.10;99.90
26270;DHT22;15937;50.612;6.656;2022-11-02T17:05:20;12.00;99.90
26270;DHT22;15937;50.612;6.656;2022-11-02T17:09:23;11.90;99.90
26270;DHT22;15937;50.612;6.656;2022-11-02T17:13:27;11.90;99.90
26270;DHT22;15937;50.612;6.656;2022-11-02T17:17:33;11.70;99.90
26270;DHT22;15937;50.612;6.656;2022-11-02T17:21:35;11.70;99.90
26270;DHT22;15937;50.612;6.656;2022-11-02T17:25:37;11.60;99.90
26270;DHT22;15937;50.612;6.656;2022-11-02T17:29:39;11.60;99.90
26270;DHT22;15937;50.612;6.656;2022-11-02T17:33:41;11.40;99.90
26270;DHT22;15937;50.612;6.656;2022-11-02T17:37:43;11.30;99.90
26270;DHT22;15937;50.612;6.656;2022-11-02T17:41:45;11.30;99.90
26270;DHT22;15937;50.612;6.656;2022-11-02T17:46:07;11.40;99.90
26270;DHT22;15937;50.612;6.656;2022-11-02T17:50:08;11.30;99.90
26270;DHT22;15937;50.612;6.656;2022-11-02T17:54:14;11.20;99.90
26270;DHT22;15937;50.612;6.656;2022-11-02T17:58:16;11.10;99.90
26270;DHT22;15937;50.612;6.656;2022-11-02T18:02:18;11.20;99.90
26270;DHT22;15937;50.612;6.656;2022-11-02T18:06:19;11.00;99.90
26270;DHT22;15937;50.612;6.656;2022-11-02T18:10:23;10.80;99.90
26270;DHT22;15937;50.612;6.656;2022-11-02T18:14:25;10.90;99.90
26270;DHT22;15937;50.612;6.656;2022-11-02T18:18:26;10.90;99.90
26270;DHT22;15937;50.612;6.656;2022-11-02T18:22:28;10.80;99.90
26270;DHT22;15937;50.612;6.656;2022-11-02T18:26:29;10.80;99.90
26270;DHT22;15937;50.612;6.656;2022-11-02T18:30:31;10.70;99.90
26270;DHT22;15937;50.612;6.656;2022-11-02T18:34:32;10.60;99.90
26270;DHT22;15937;50.612;6.656;2022-11-02T18:38:34;10.80;99.90
26270;DHT22;15937;50.612;6.656;2022-11-02T18:42:37;10.70;99.90
26270;DHT22;15937;50.612;6.656;2022-11-02T18:46:42;10.60;99.90
26270;DHT22;15937;50.612;6.656;2022-11-02T18:50:47;10.60;99.90
26270;DHT22;15937;50.612;6.656;2022-11-02T18:54:49;10.50;99.90
26270;DHT22;15937;50.612;6.656;2022-11-02T18:58:52;10.40;99.90
26270;DHT22;15937;50.612;6.656;2022-11-02T19:02:53;10.50;99.90
26270;DHT22;15937;50.612;6.656;2022-11-02T19:06:55;10.40;99.90
26270;DHT22;15937;50.612;6.656;2022-11-02T19:11:17;10.50;99.90
26270;DHT22;15937;50.612;6.656;2022-11-02T19:15:18;10.60;99.90
26270;DHT22;15937;50.612;6.656;2022-11-02T19:19:20;10.70;99.90
26270;DHT22;15937;50.612;6.656;2022-11-02T19:23:22;10.60;99.90
26270;DHT22;15937;50.612;6.656;2022-11-02T19:27:23;10.60;99.90
26270;DHT22;15937;50.612;6.656;2022-11-02T19:31:25;10.70;99.90
26270;DHT22;15937;50.612;6.656;2022-11-02T19:35:30;10.40;99.90
26270;DHT22;15937;50.612;6.656;2022-11-02T19:39:32;10.60;99.90
26270;DHT22;15937;50.612;6.656;2022-11-02T19:43:34;10.40;99.90
26270;DHT22;15937;50.612;6.656;2022-11-02T19:47:36;10.40;99.90
26270;DHT22;15937;50.612;6.656;2022-11-02T19:51:37;10.40;99.90
26270;DHT22;15937;50.612;6.656;2022-11-02T19:55:39;10.60;99.90
26270;DHT22;15937;50.612;6.656;2022-11-02T19:59:41;10.40;99.90
26270;DHT22;15937;50.612;6.656;2022-11-02T20:03:42;10.30;99.90
26270;DHT22;15937;50.612;6.656;2022-11-02T20:07:45;10.30;99.90
26270;DHT22;15937;50.612;6.656;2022-11-02T20:11:46;10.40;99.90
26270;DHT22;15937;50.612;6.656;2022-11-02T20:15:48;10.80;99.90
26270;DHT22;15937;50.612;6.656;2022-11-02T20:19:50;10.70;99.90
26270;DHT22;15937;50.612;6.656;2022-11-02T20:23:52;10.60;99.90
26270;DHT22;15937;50.612;6.656;2022-11-02T20:27:53;10.60;99.90
26270;DHT22;15937;50.612;6.656;2022-11-02T20:31:55;10.60;99.90
26270;DHT22;15937;50.612;6.656;2022-11-02T20:35:57;11.00;99.90
26270;DHT22;15937;50.612;6.656;2022-11-02T20:39:59;10.70;99.90
26270;DHT22;15937;50.612;6.656;2022-11-02T20:44:00;10.70;99.90
26270;DHT22;15937;50.612;6.656;2022-11-02T20:48:02;10.70;99.90
26270;DHT22;15937;50.612;6.656;2022-11-02T20:52:04;10.60;99.90
26270;DHT22;15937;50.612;6.656;2022-11-02T20:56:06;10.60;99.90
26270;DHT22;15937;50.612;6.656;2022-11-02T21:00:08;10.50;99.90
26270;DHT22;15937;50.612;6.656;2022-11-02T21:04:10;10.60;99.90
26270;DHT22;15937;50.612;6.656;2022-11-02T21:08:20;10.70;99.90
26270;DHT22;15937;50.612;6.656;2022-11-02T21:12:25;10.90;99.90
26270;DHT22;15937;50.612;6.656;2022-11-02T21:16:46;10.60;99.90
26270;DHT22;15937;50.612;6.656;2022-11-02T21:20:50;10.80;99.90
26270;DHT22;15937;50.612;6.656;2022-11-02T21:24:59;10.90;99.90
26270;DHT22;15937;50.612;6.656;2022-11-02T21:29:01;10.70;99.90
26270;DHT22;15937;50.612;6.656;2022-11-02T21:33:11;10.80;99.90
26270;DHT22;15937;50.612;6.656;2022-11-02T21:37:15;10.80;99.90
26270;DHT22;15937;50.612;6.656;2022-11-02T21:41:21;10.80;99.90
26270;DHT22;15937;50.612;6.656;2022-11-02T21:45:30;10.80;99.90
26270;DHT22;15937;50.612;6.656;2022-11-02T21:49:38;10.80;99.90
26270;DHT22;15937;50.612;6.656;2022-11-02T21:53:43;10.70;99.90
26270;DHT22;15937;50.612;6.656;2022-11-02T21:57:45;10.70;99.90
26270;DHT22;15937;50.612;6.656;2022-11-02T22:01:47;10.80;99.90
26270;DHT22;15937;50.612;6.656;2022-11-02T22:05:49;10.80;99.90
26270;DHT22;15937;50.612;6.656;2022-11-02T22:09:59;10.70;99.90
26270;DHT22;15937;50.612;6.656;2022-11-02T22:14:01;10.80;99.90
26270;DHT22;15937;50.612;6.656;2022-11-02T22:18:02;10.80;99.90
26270;DHT22;15937;50.612;6.656;2022-11-02T22:22:04;10.80;99.90
26270;DHT22;15937;50.612;6.656;2022-11-02T22:26:07;11.10;99.90
26270;DHT22;15937;50.612;6.656;2022-11-02T22:30:08;11.00;99.90
26270;DHT22;15937;50.612;6.656;2022-11-02T22:34:11;10.90;99.90
26270;DHT22;15937;50.612;6.656;2022-11-02T22:38:13;10.90;99.90
26270;DHT22;15937;50.612;6.656;2022-11-02T22:42:33;11.00;99.90
26270;DHT22;15937;50.612;6.656;2022-11-02T22:46:42;10.90;99.90
26270;DHT22;15937;50.612;6.656;2022-11-02T22:50:44;10.90;99.90
26270;DHT22;15937;50.612;6.656;2022-11-02T22:54:46;10.90;99.90
26270;DHT22;15937;50.612;6.656;2022-11-02T22:58:48;10.90;99.90
26270;DHT22;15937;50.612;6.656;2022-11-02T23:02:50;10.90;99.90
26270;DHT22;15937;50.612;6.656;2022-11-02T23:06:51;10.80;99.90
26270;DHT22;15937;50.612;6.656;2022-11-02T23:10:56;10.90;99.90
26270;DHT22;15937;50.612;6.656;2022-11-02T23:15:17;10.90;99.90
26270;DHT22;15937;50.612;6.656;2022-11-02T23:19:19;10.80;99.90
26270;DHT22;15937;50.612;6.656;2022-11-02T23:23:29;10.70;99.90
26270;DHT22;15937;50.612;6.656;2022-11-02T23:27:53;10.60;99.90
26270;DHT22;15937;50.612;6.656;2022-11-02T23:32:17;10.60;99.90
26270;DHT22;15937;50.612;6.656;2022-11-02T23:36:28;10.70;99.90
26270;DHT22;15937;50.612;6.656;2022-11-02T23:40:30;10.60;99.90
26270;DHT22;15937;50.612;6.656;2022-11-02T23:44:32;10.60;99.90
26270;DHT22;15937;50.612;6.656;2022-11-02T23:48:35;10.80;99.90
26270;DHT22;15937;50.612;6.656;2022-11-02T23:52:36;10.60;99.90
26270;DHT22;15937;50.612;6.656;2022-11-02T23:56:57;10.80;99.90
